Time;durP1;ratioP1;P1;durP2;ratioP2;P2;SDS_P1;SDS_P2;PMS_P1;PMS_P2;Temp;Humidity;BMP_temperature;BMP_pressure;BME280_temperature;BME280_humidity;BME280_pressure;Samples;Min_cycle;Max_cycle;Signal;HPM_P1;HPM_P2
2022/01/16 00:05:07;;;;;;;4.75;1.75;;;;;;;;;;7330988;19;162622;-14
2022/01/16 00:07:38;;;;;;;1.83;1.67;;;;;;;;;;7328201;19;154121;-14
2022/01/16 00:10:13;;;;;;;2.17;1.67;;;;;;;;;;7324254;19;153706;-13
2022/01/16 00:12:48;;;;;;;2.20;1.77;;;;;;;;;;7323571;19;164040;-13
2022/01/16 00:15:21;;;;;;;1.38;1.38;;;;;;;;;;7322197;19;162548;-12
2022/01/16 00:17:56;;;;;;;1.90;1.80;;;;;;;;;;7322721;19;154145;-13
2022/01/16 00:20:28;;;;;;;1.92;1.83;;;;;;;;;;7325909;19;153516;-13
2022/01/16 00:22:59;;;;;;;1.70;1.60;;;;;;;;;;7331420;19;161947;-14
2022/01/16 00:25:33;;;;;;;1.83;1.73;;;;;;;;;;7331039;19;162660;-14
2022/01/16 00:28:05;;;;;;;1.88;1.60;;;;;;;;;;7333002;19;154499;-13
2022/01/16 00:30:36;;;;;;;1.70;1.55;;;;;;;;;;7329521;19;153619;-14
2022/01/16 00:33:08;;;;;;;1.70;1.60;;;;;;;;;;7335119;19;162632;-13
2022/01/16 00:35:40;;;;;;;1.60;1.50;;;;;;;;;;7336859;19;162340;-13
2022/01/16 00:38:11;;;;;;;1.75;1.65;;;;;;;;;;7331271;19;154280;-13
2022/01/16 00:40:45;;;;;;;1.88;1.77;;;;;;;;;;7327918;19;153567;-13
2022/01/16 00:43:16;;;;;;;1.67;1.58;;;;;;;;;;7327015;19;162011;-14
2022/01/16 00:45:47;;;;;;;1.80;1.70;;;;;;;;;;7329542;19;162537;-14
2022/01/16 00:48:19;;;;;;;1.48;1.40;;;;;;;;;;7332242;19;153953;-13
2022/01/16 00:50:50;;;;;;;1.70;1.60;;;;;;;;;;7332783;19;153905;-13
2022/01/16 00:53:21;;;;;;;1.60;1.50;;;;;;;;;;7327816;19;161867;-13
2022/01/16 00:55:55;;;;;;;1.60;1.50;;;;;;;;;;7329442;19;162564;-14
2022/01/16 00:58:26;;;;;;;1.60;1.50;;;;;;;;;;7330094;19;154260;-14
2022/01/16 01:00:58;;;;;;;1.73;1.63;;;;;;;;;;7331194;19;153499;-13
2022/01/16 01:03:30;;;;;;;1.55;1.45;;;;;;;;;;7332625;19;162714;-14
2022/01/16 01:06:01;;;;;;;1.60;1.50;;;;;;;;;;7333210;19;162358;-14
2022/01/16 01:08:33;;;;;;;2.28;1.70;;;;;;;;;;7331655;19;154226;-14
2022/01/16 01:11:12;;;;;;;1.48;1.38;;;;;;;;;;7328643;19;153585;-14
2022/01/16 01:13:56;;;;;;;1.33;1.23;;;;;;;;;;7335528;19;161768;-15
2022/01/16 01:16:38;;;;;;;1.67;1.58;;;;;;;;;;7331190;19;162399;-12
2022/01/16 01:19:09;;;;;;;1.52;1.42;;;;;;;;;;7332820;19;153964;-13
2022/01/16 01:21:40;;;;;;;1.65;1.55;;;;;;;;;;7330018;19;153742;-14
2022/01/16 12:33:00;;;;;;;1.60;1.00;;;;;;;;;;7371312;19;132556;-14
2022/01/16 12:36:08;;;;;;;1.20;0.88;;;;;;;;;;7366870;19;153797;-14
2022/01/16 12:38:43;;;;;;;0.95;0.80;;;;;;;;;;7366136;19;161921;-13
2022/01/16 12:41:17;;;;;;;0.90;0.90;;;;;;;;;;7363303;19;162809;-14
2022/01/16 12:43:55;;;;;;;1.00;0.90;;;;;;;;;;7364563;19;154183;-14
2022/01/16 12:46:32;;;;;;;0.80;0.80;;;;;;;;;;7368800;19;153499;-13
2022/01/16 12:49:09;;;;;;;0.80;0.80;;;;;;;;;;7365796;19;162000;-14
2022/01/16 12:51:45;;;;;;;1.60;1.40;;;;;;;;;;7363953;19;162435;-14
2022/01/16 12:54:18;;;;;;;0.70;0.70;;;;;;;;;;7363166;19;154182;-15
2022/01/16 12:56:50;;;;;;;0.80;0.80;;;;;;;;;;7365707;19;153892;-15
2022/01/16 12:59:42;;;;;;;1.98;0.80;;;;;;;;;;7366814;19;161845;-13
2022/01/16 13:02:14;;;;;;;1.15;0.90;;;;;;;;;;7364907;19;162385;-14
2022/01/16 13:04:49;;;;;;;1.83;0.95;;;;;;;;;;7367160;19;153957;-14
2022/01/16 13:07:42;;;;;;;1.23;0.80;;;;;;;;;;7367991;19;153689;-13
2022/01/16 13:10:13;;;;;;;1.05;0.70;;;;;;;;;;7366305;19;161809;-14
2022/01/16 13:12:44;;;;;;;1.33;0.70;;;;;;;;;;7363742;19;162512;-14
2022/01/16 13:15:15;;;;;;;0.68;0.68;;;;;;;;;;7366845;19;154156;-15
2022/01/16 13:17:47;;;;;;;1.20;1.10;;;;;;;;;;7367714;19;153578;-15
2022/01/16 13:20:26;;;;;;;0.80;0.80;;;;;;;;;;7366214;19;162016;-13
2022/01/16 13:22:59;;;;;;;0.80;0.80;;;;;;;;;;7361513;19;162949;-14
2022/01/16 13:25:30;;;;;;;0.60;0.60;;;;;;;;;;7358134;19;154404;-14
2022/01/16 13:28:02;;;;;;;1.65;0.80;;;;;;;;;;7361440;19;153594;-14
2022/01/16 13:30:37;;;;;;;0.70;0.70;;;;;;;;;;7365128;19;161964;-14
2022/01/16 13:33:10;;;;;;;1.10;0.95;;;;;;;;;;7341484;19;162447;-14
2022/01/16 13:35:43;;;;;;;1.40;0.90;;;;;;;;;;7338520;19;153932;-13
2022/01/16 13:38:17;;;;;;;0.70;0.70;;;;;;;;;;7335827;19;153785;-14
2022/01/16 13:40:49;;;;;;;0.80;0.80;;;;;;;;;;7333627;19;161780;-14
2022/01/16 13:43:22;;;;;;;0.80;0.80;;;;;;;;;;7329289;19;162767;-14
2022/01/16 13:45:53;;;;;;;;;;;;;;;;;;7334127;19;154143;-14
2022/01/16 13:48:25;;;;;;;0.70;0.70;;;;;;;;;;7335376;19;153333;-15
2022/01/16 13:51:01;;;;;;;0.80;0.80;;;;;;;;;;7336041;19;161935;-19
2022/01/16 13:53:42;;;;;;;0.93;0.80;;;;;;;;;;7337143;19;162475;-13
2022/01/16 13:56:16;;;;;;;0.70;0.70;;;;;;;;;;7335349;19;156018;-13
2022/01/16 13:58:52;;;;;;;1.48;0.70;;;;;;;;;;7334013;19;153673;-13
2022/01/16 14:01:26;;;;;;;0.88;0.70;;;;;;;;;;7334611;19;162051;-13
2022/01/16 14:03:59;;;;;;;0.93;0.93;;;;;;;;;;7333882;19;162415;-14
2022/01/16 14:06:36;;;;;;;1.33;0.88;;;;;;;;;;7334983;19;154190;-14
2022/01/16 14:09:09;;;;;;;2.22;1.10;;;;;;;;;;7336687;19;153813;-14
2022/01/16 14:11:43;;;;;;;0.85;0.85;;;;;;;;;;7334720;19;161801;-13
2022/01/16 14:14:16;;;;;;;2.35;0.82;;;;;;;;;;7335900;19;162490;-14
2022/01/16 14:16:50;;;;;;;1.30;1.05;;;;;;;;;;7330428;19;154043;-14
2022/01/16 14:19:25;;;;;;;0.90;0.90;;;;;;;;;;7333391;19;153749;-15
2022/01/16 14:22:07;;;;;;;0.80;0.80;;;;;;;;;;7330893;19;161836;-14
2022/01/16 14:24:42;;;;;;;0.80;0.68;;;;;;;;;;7331746;19;162718;-14
2022/01/16 14:27:14;;;;;;;;;;;;;;;;;;7334356;19;153892;-14
2022/01/16 14:29:48;;;;;;;1.52;1.23;;;;;;;;;;7333134;19;153206;-15
2022/01/16 14:32:21;;;;;;;1.57;0.80;;;;;;;;;;7330408;19;161628;-16
2022/01/16 14:34:57;;;;;;;0.65;0.65;;;;;;;;;;7327571;19;162307;-14
2022/01/16 14:37:32;;;;;;;0.73;0.70;;;;;;;;;;7333209;19;153728;-15
2022/01/16 14:40:03;;;;;;;0.80;0.80;;;;;;;;;;7331692;19;154069;-14
2022/01/16 14:42:41;;;;;;;1.17;0.70;;;;;;;;;;7325579;19;161897;-13
2022/01/16 14:45:13;;;;;;;0.93;0.93;;;;;;;;;;7329877;19;162596;-14
2022/01/16 14:47:44;;;;;;;11.15;1.15;;;;;;;;;;7332662;19;153928;-14
2022/01/16 14:50:19;;;;;;;0.68;0.68;;;;;;;;;;7330660;19;153558;-14
2022/01/16 14:52:53;;;;;;;0.70;0.70;;;;;;;;;;7334397;19;161801;-14
2022/01/16 14:55:25;;;;;;;0.90;0.85;;;;;;;;;;7334726;19;162503;-14
2022/01/16 14:57:56;;;;;;;1.58;0.88;;;;;;;;;;7335202;19;154116;-14
2022/01/16 15:00:27;;;;;;;1.33;0.90;;;;;;;;;;7333910;19;153698;-15
2022/01/16 15:02:58;;;;;;;1.70;0.75;;;;;;;;;;7332145;19;161811;-13
2022/01/16 15:05:30;;;;;;;0.60;0.60;;;;;;;;;;7333344;19;162718;-14
2022/01/16 15:08:04;;;;;;;1.10;0.90;;;;;;;;;;7333897;19;153757;-14
2022/01/16 15:10:35;;;;;;;0.80;0.80;;;;;;;;;;7334737;19;153369;-14
2022/01/16 15:13:06;;;;;;;0.82;0.82;;;;;;;;;;7333620;19;162182;-14
2022/01/16 15:15:37;;;;;;;0.70;0.70;;;;;;;;;;7333835;19;162456;-14
2022/01/16 15:18:11;;;;;;;2.90;0.80;;;;;;;;;;7332960;19;154277;-15
2022/01/16 15:20:44;;;;;;;0.70;0.70;;;;;;;;;;7332967;19;154072;-15
2022/01/16 15:23:32;;;;;;;1.17;0.70;;;;;;;;;;7331521;19;161825;-14
2022/01/16 15:26:06;;;;;;;0.80;0.80;;;;;;;;;;7332128;19;162438;-14
2022/01/16 15:28:37;;;;;;;0.65;0.60;;;;;;;;;;7332087;19;154053;-13
2022/01/16 15:31:09;;;;;;;0.80;0.80;;;;;;;;;;7327747;19;153546;-14
2022/01/16 15:33:40;;;;;;;0.73;0.73;;;;;;;;;;7323638;19;161976;-12
2022/01/16 15:36:12;;;;;;;0.98;0.77;;;;;;;;;;7330302;19;162380;-14
2022/01/16 15:38:46;;;;;;;0.82;0.82;;;;;;;;;;7333426;19;154048;-13
2022/01/16 15:41:17;;;;;;;0.90;0.90;;;;;;;;;;7332651;19;153599;-13
2022/01/16 15:43:49;;;;;;;0.80;0.80;;;;;;;;;;7330347;19;162008;-14
2022/01/16 15:46:20;;;;;;;0.85;0.77;;;;;;;;;;7326301;19;162362;-14
2022/01/16 15:48:54;;;;;;;0.68;0.68;;;;;;;;;;7332146;19;154434;-13
2022/01/16 15:51:26;;;;;;;1.60;0.88;;;;;;;;;;7329598;19;153465;-14
2022/01/16 15:54:19;;;;;;;2.75;0.73;;;;;;;;;;7330002;19;161848;-14
2022/01/16 15:56:51;;;;;;;0.73;0.73;;;;;;;;;;7323189;19;162427;-13
2022/01/16 15:59:22;;;;;;;0.80;0.80;;;;;;;;;;7326508;19;153954;-13
2022/01/16 16:01:53;;;;;;;0.80;0.80;;;;;;;;;;7332832;19;153523;-14
2022/01/16 16:04:26;;;;;;;1.05;0.90;;;;;;;;;;7322670;19;161822;-13
2022/01/16 16:06:57;;;;;;;0.63;0.63;;;;;;;;;;7330096;19;162486;-14
2022/01/16 16:09:31;;;;;;;0.70;0.70;;;;;;;;;;7330563;19;154064;-14
2022/01/16 16:12:05;;;;;;;0.70;0.70;;;;;;;;;;7324836;19;153863;-14
2022/01/16 16:14:38;;;;;;;0.77;0.77;;;;;;;;;;7322541;19;161786;-13
2022/01/16 16:17:10;;;;;;;1.33;0.85;;;;;;;;;;7322241;19;162607;-14
2022/01/16 16:19:41;;;;;;;0.70;0.70;;;;;;;;;;7323865;19;154657;-14
2022/01/16 16:22:12;;;;;;;0.55;0.55;;;;;;;;;;7330450;19;153587;-13
2022/01/16 16:24:46;;;;;;;0.60;0.60;;;;;;;;;;7330531;19;162662;-15
2022/01/16 16:27:17;;;;;;;0.70;0.70;;;;;;;;;;7330152;19;162351;-16
2022/01/16 16:29:51;;;;;;;0.57;0.57;;;;;;;;;;7331595;19;153943;-13
2022/01/16 16:32:23;;;;;;;0.63;0.63;;;;;;;;;;7326745;19;153551;-14
2022/01/16 16:34:55;;;;;;;0.80;0.80;;;;;;;;;;7328190;19;162217;-15
2022/01/16 16:37:26;;;;;;;0.90;0.77;;;;;;;;;;7328276;19;162401;-15
2022/01/16 16:40:12;;;;;;;0.70;0.70;;;;;;;;;;7328044;19;153973;-13
2022/01/16 16:42:45;;;;;;;0.73;0.73;;;;;;;;;;7331829;19;154319;-13
2022/01/16 16:45:18;;;;;;;0.80;0.80;;;;;;;;;;7325418;19;161751;-16
2022/01/16 16:47:50;;;;;;;0.60;0.60;;;;;;;;;;7328237;19;162494;-15
2022/01/16 16:50:21;;;;;;;0.55;0.55;;;;;;;;;;7328507;19;153765;-14
2022/01/16 16:52:55;;;;;;;0.65;0.65;;;;;;;;;;7328677;19;153549;-14
2022/01/16 16:55:29;;;;;;;0.50;0.50;;;;;;;;;;7328150;19;161963;-13
2022/01/16 16:58:01;;;;;;;0.65;0.65;;;;;;;;;;7326683;19;162354;-13
2022/01/16 17:00:32;;;;;;;0.60;0.60;;;;;;;;;;7328505;19;153960;-12
2022/01/16 17:03:03;;;;;;;0.60;0.60;;;;;;;;;;7328319;19;153458;-13
2022/01/16 17:05:36;;;;;;;0.50;0.50;;;;;;;;;;7325149;19;161930;-14
2022/01/16 17:08:07;;;;;;;1.92;0.70;;;;;;;;;;7331113;19;162653;-14
2022/01/16 17:10:41;;;;;;;0.63;0.60;;;;;;;;;;7335336;19;153959;-15
2022/01/16 17:13:13;;;;;;;0.88;0.52;;;;;;;;;;7335192;19;153658;-14
2022/01/16 17:15:45;;;;;;;0.57;0.57;;;;;;;;;;7334486;19;161997;-14
2022/01/16 17:18:21;;;;;;;0.70;0.70;;;;;;;;;;7334473;19;162404;-14
2022/01/16 17:20:54;;;;;;;1.52;0.50;;;;;;;;;;7334531;19;154035;-13
2022/01/16 17:23:26;;;;;;;0.98;0.80;;;;;;;;;;7334495;19;153701;-14
2022/01/16 17:25:59;;;;;;;0.55;0.55;;;;;;;;;;7334349;19;162140;-14
2022/01/16 17:28:36;;;;;;;1.05;0.65;;;;;;;;;;7333330;19;162320;-14
2022/01/16 17:31:07;;;;;;;1.00;0.73;;;;;;;;;;7333361;19;154110;-13
2022/01/16 17:33:39;;;;;;;0.50;0.50;;;;;;;;;;7334357;19;153747;-14
2022/01/16 17:36:10;;;;;;;0.68;0.68;;;;;;;;;;7333882;19;162045;-13
2022/01/16 17:38:41;;;;;;;0.60;0.60;;;;;;;;;;7333697;19;162456;-14
2022/01/16 17:41:17;;;;;;;0.55;0.55;;;;;;;;;;7334213;19;154122;-15
2022/01/16 17:43:49;;;;;;;1.20;0.60;;;;;;;;;;7333771;19;153686;-15
2022/01/16 17:46:20;;;;;;;0.70;0.70;;;;;;;;;;7333766;19;161828;-13
2022/01/16 17:48:51;;;;;;;0.95;0.80;;;;;;;;;;7333729;19;162292;-13
2022/01/16 17:51:23;;;;;;;0.80;0.80;;;;;;;;;;7334253;19;154153;-15
2022/01/16 17:53:55;;;;;;;0.60;0.60;;;;;;;;;;7332766;19;153847;-14
2022/01/16 17:56:29;;;;;;;0.50;0.50;;;;;;;;;;7333427;19;161624;-14
2022/01/16 17:59:01;;;;;;;0.65;0.65;;;;;;;;;;7333238;19;162369;-14
2022/01/16 18:01:32;;;;;;;0.60;0.60;;;;;;;;;;7333744;19;153975;-14
2022/01/16 18:04:04;;;;;;;0.77;0.77;;;;;;;;;;7331950;19;153666;-14
2022/01/16 18:06:37;;;;;;;2.63;0.80;;;;;;;;;;7336229;19;162012;-14
2022/01/16 18:09:08;;;;;;;;;;;;;;;;;;7337538;19;162530;-14
2022/01/16 18:11:41;;;;;;;0.75;0.75;;;;;;;;;;7335261;19;153935;-14
2022/01/16 18:14:13;;;;;;;0.70;0.70;;;;;;;;;;7334826;19;153560;-15
2022/01/16 18:16:44;;;;;;;0.50;0.50;;;;;;;;;;7335287;19;162020;-21
2022/01/16 18:19:16;;;;;;;0.80;0.80;;;;;;;;;;7336921;19;162413;-14
2022/01/16 18:21:47;;;;;;;0.60;0.60;;;;;;;;;;7333338;19;153966;-14
2022/01/16 18:24:18;;;;;;;0.80;0.80;;;;;;;;;;7336083;19;153207;-15
2022/01/16 18:26:52;;;;;;;0.90;0.90;;;;;;;;;;7331436;19;161898;-14
2022/01/16 18:29:25;;;;;;;0.73;0.73;;;;;;;;;;7332310;19;162468;-14
2022/01/16 18:31:58;;;;;;;0.60;0.60;;;;;;;;;;7330754;19;154209;-18
2022/01/16 18:34:31;;;;;;;2.78;2.58;;;;;;;;;;7331777;19;153494;-13
2022/01/16 18:37:03;;;;;;;2.00;1.90;;;;;;;;;;7332440;19;161892;-14
2022/01/16 18:39:34;;;;;;;1.17;1.13;;;;;;;;;;7329359;19;163466;-14
2022/01/16 18:42:09;;;;;;;1.30;1.20;;;;;;;;;;7336394;19;154026;-14
2022/01/16 18:44:41;;;;;;;1.98;1.88;;;;;;;;;;7332387;19;153517;-13
2022/01/16 18:47:13;;;;;;;3.78;2.72;;;;;;;;;;7332040;19;161907;-16
2022/01/16 18:49:44;;;;;;;3.47;2.33;;;;;;;;;;7331846;19;162619;-13
2022/01/16 18:52:16;;;;;;;4.70;2.83;;;;;;;;;;7332726;19;154093;-13
2022/01/16 18:54:49;;;;;;;2.40;2.20;;;;;;;;;;7326789;19;153596;-15
2022/01/16 18:57:23;;;;;;;2.63;2.42;;;;;;;;;;7330429;19;162427;-15
2022/01/16 18:59:55;;;;;;;3.08;2.33;;;;;;;;;;7331789;19;162539;-15
2022/01/16 19:02:26;;;;;;;5.25;2.50;;;;;;;;;;7332358;19;153968;-14
2022/01/16 19:04:57;;;;;;;5.22;2.50;;;;;;;;;;7331380;19;153615;-14
2022/01/16 19:07:28;;;;;;;3.00;2.58;;;;;;;;;;7331698;19;161797;-14
2022/01/16 19:10:00;;;;;;;4.25;2.60;;;;;;;;;;7331597;19;162423;-14
2022/01/16 19:12:33;;;;;;;2.70;2.40;;;;;;;;;;7331860;19;153977;-16
2022/01/16 19:15:06;;;;;;;3.30;2.47;;;;;;;;;;7331753;19;153679;-15
2022/01/16 19:17:38;;;;;;;3.75;2.75;;;;;;;;;;7331340;19;161879;-15
2022/01/16 19:20:11;;;;;;;2.83;2.60;;;;;;;;;;7330957;19;163004;-13
2022/01/16 19:22:42;;;;;;;3.08;2.63;;;;;;;;;;7331649;19;153859;-14
2022/01/16 19:25:15;;;;;;;2.53;2.33;;;;;;;;;;7329671;19;153587;-15
2022/01/16 19:27:49;;;;;;;;;;;;;;;;;;7331463;19;161910;-15
2022/01/16 19:30:21;;;;;;;3.10;2.40;;;;;;;;;;7329306;19;162593;-15
2022/01/16 19:32:52;;;;;;;2.65;2.47;;;;;;;;;;7331303;19;153998;-13
2022/01/16 19:35:23;;;;;;;2.67;2.47;;;;;;;;;;7331219;19;153540;-14
2022/01/16 19:37:55;;;;;;;2.70;2.50;;;;;;;;;;7330798;19;161879;-14
2022/01/16 19:40:26;;;;;;;2.65;2.47;;;;;;;;;;7330492;19;162373;-14
2022/01/16 19:43:09;;;;;;;2.50;2.30;;;;;;;;;;7329716;19;154113;-22
2022/01/16 19:45:43;;;;;;;4.60;2.47;;;;;;;;;;7328684;19;153533;-15
2022/01/16 19:48:18;;;;;;;2.42;2.22;;;;;;;;;;7330603;19;161852;-22
2022/01/16 19:50:51;;;;;;;2.60;2.40;;;;;;;;;;7330309;19;162794;-15
2022/01/16 19:53:22;;;;;;;2.67;2.47;;;;;;;;;;7329662;19;154079;-13
2022/01/16 19:55:55;;;;;;;2.63;2.42;;;;;;;;;;7330417;19;153566;-15
2022/01/16 19:58:29;;;;;;;;;;;;;;;;;;7330555;19;161964;-14
2022/01/16 20:01:02;;;;;;;2.60;2.40;;;;;;;;;;7330149;19;162700;-14
2022/01/16 20:03:34;;;;;;;2.40;2.30;;;;;;;;;;7330297;19;154586;-14
2022/01/16 20:06:06;;;;;;;2.63;2.42;;;;;;;;;;7327913;19;154040;-15
2022/01/16 20:08:37;;;;;;;3.15;2.45;;;;;;;;;;7329898;19;161815;-15
2022/01/16 20:11:09;;;;;;;2.75;2.55;;;;;;;;;;7328464;19;162507;-14
2022/01/16 20:13:43;;;;;;;2.50;2.30;;;;;;;;;;7329981;19;153981;-14
2022/01/16 20:16:14;;;;;;;2.70;2.50;;;;;;;;;;7329973;19;153790;-15
2022/01/16 20:18:45;;;;;;;2.60;2.47;;;;;;;;;;7329811;19;161595;-14
2022/01/16 20:21:17;;;;;;;2.30;2.20;;;;;;;;;;7329581;19;162231;-14
2022/01/16 20:23:49;;;;;;;2.55;2.35;;;;;;;;;;7329865;19;154441;-14
2022/01/16 20:26:22;;;;;;;2.57;2.37;;;;;;;;;;7328587;19;153634;-14
2022/01/16 20:28:55;;;;;;;2.72;2.47;;;;;;;;;;7329487;19;161884;-15
2022/01/16 20:31:27;;;;;;;3.10;2.80;;;;;;;;;;7329394;19;162538;-14
2022/01/16 20:34:01;;;;;;;2.70;2.50;;;;;;;;;;7329248;19;153976;-17
2022/01/16 20:36:32;;;;;;;4.05;2.60;;;;;;;;;;7332760;19;153495;-14
2022/01/16 20:39:04;;;;;;;3.92;2.40;;;;;;;;;;7330605;19;161856;-14
2022/01/16 20:41:35;;;;;;;2.30;2.10;;;;;;;;;;7328749;19;162383;-15
2022/01/16 20:44:09;;;;;;;2.65;2.45;;;;;;;;;;7337308;19;153973;-14
2022/01/16 20:46:42;;;;;;;2.42;2.22;;;;;;;;;;7335099;19;153622;-13
2022/01/16 20:49:14;;;;;;;2.42;2.22;;;;;;;;;;7335549;19;161613;-15
2022/01/16 20:51:45;;;;;;;2.35;2.20;;;;;;;;;;7335428;19;162630;-13
2022/01/16 20:54:17;;;;;;;3.42;2.60;;;;;;;;;;7336688;19;154134;-13
2022/01/16 20:56:49;;;;;;;2.58;2.47;;;;;;;;;;7335488;19;154260;-13
2022/01/16 20:59:30;;;;;;;3.55;3.10;;;;;;;;;;7335079;19;162199;-14
2022/01/16 21:02:04;;;;;;;2.97;2.40;;;;;;;;;;7335253;19;162688;-14
2022/01/16 21:04:36;;;;;;;3.15;2.67;;;;;;;;;;7335472;19;154254;-13
2022/01/16 21:07:07;;;;;;;2.55;2.35;;;;;;;;;;7333866;19;153565;-13
2022/01/16 21:09:38;;;;;;;4.50;2.88;;;;;;;;;;7334935;19;161780;-14
2022/01/16 21:12:11;;;;;;;3.47;3.15;;;;;;;;;;7333392;19;162570;-14
2022/01/16 21:14:46;;;;;;;3.47;2.97;;;;;;;;;;7337744;19;154386;-14
2022/01/16 21:17:18;;;;;;;2.58;2.38;;;;;;;;;;7333042;19;153853;-14
2022/01/16 21:19:50;;;;;;;2.47;2.30;;;;;;;;;;7337161;19;161796;-15
2022/01/16 21:22:24;;;;;;;3.00;2.35;;;;;;;;;;7335744;19;162799;-14
2022/01/16 21:24:55;;;;;;;2.90;2.22;;;;;;;;;;7337430;19;154151;-14
2022/01/16 21:27:27;;;;;;;2.30;2.20;;;;;;;;;;7335504;19;153551;-14
2022/01/16 21:30:01;;;;;;;2.70;2.50;;;;;;;;;;7337220;19;161829;-15
2022/01/16 21:32:33;;;;;;;2.65;2.45;;;;;;;;;;7335349;19;162327;-14
2022/01/16 21:35:04;;;;;;;2.55;2.30;;;;;;;;;;7336979;19;153937;-14
2022/01/16 21:37:35;;;;;;;2.53;2.33;;;;;;;;;;7337122;19;153522;-14
2022/01/16 21:40:08;;;;;;;2.70;2.50;;;;;;;;;;7337251;19;161737;-15
2022/01/16 21:42:39;;;;;;;2.40;2.20;;;;;;;;;;7337225;19;162551;-15
2022/01/16 21:45:16;;;;;;;2.63;2.22;;;;;;;;;;7337233;19;154105;-16
2022/01/16 21:47:47;;;;;;;2.20;2.10;;;;;;;;;;7336057;19;153558;-16
2022/01/16 21:50:21;;;;;;;2.45;2.25;;;;;;;;;;7335382;19;161909;-14
2022/01/16 21:52:54;;;;;;;2.50;2.30;;;;;;;;;;7335899;19;162672;-14
2022/01/16 21:55:27;;;;;;;3.83;2.38;;;;;;;;;;7335459;19;153979;-16
2022/01/16 21:57:59;;;;;;;4.60;2.60;;;;;;;;;;7337131;19;153562;-15
2022/01/16 22:00:33;;;;;;;3.45;2.50;;;;;;;;;;7335224;19;162331;-14
2022/01/16 22:03:04;;;;;;;2.92;2.55;;;;;;;;;;7335495;19;162375;-15
2022/01/16 22:05:35;;;;;;;3.05;2.75;;;;;;;;;;7335528;19;153926;-15
2022/01/16 22:08:07;;;;;;;2.60;2.40;;;;;;;;;;7333658;19;154016;-14
2022/01/16 22:10:39;;;;;;;2.35;2.15;;;;;;;;;;7336043;19;161867;-16
2022/01/16 22:13:12;;;;;;;2.60;2.40;;;;;;;;;;7335661;19;162459;-14
2022/01/16 22:15:45;;;;;;;;;;;;;;;;;;7336737;19;153981;-13
2022/01/16 22:18:19;;;;;;;5.00;2.40;;;;;;;;;;7336594;19;153565;-14
2022/01/16 22:20:55;;;;;;;2.85;2.17;;;;;;;;;;7331102;19;161847;-15
2022/01/16 22:23:28;;;;;;;2.58;2.38;;;;;;;;;;7330702;19;162448;-14
2022/01/16 22:25:59;;;;;;;2.55;2.35;;;;;;;;;;7331193;19;153974;-14
2022/01/16 22:28:31;;;;;;;3.30;2.50;;;;;;;;;;7329486;19;153794;-14
2022/01/16 22:31:09;;;;;;;3.57;2.60;;;;;;;;;;7326425;19;161857;-14
2022/01/16 22:33:41;;;;;;;2.33;2.22;;;;;;;;;;7331187;19;162354;-14
2022/01/16 22:36:12;;;;;;;2.55;2.35;;;;;;;;;;7333244;19;155063;-15
2022/01/16 22:38:43;;;;;;;2.40;2.20;;;;;;;;;;7332606;19;153635;-16
2022/01/16 22:41:15;;;;;;;2.22;2.03;;;;;;;;;;7331824;19;161881;-15
2022/01/16 22:43:46;;;;;;;2.22;2.03;;;;;;;;;;7333120;19;162714;-15
2022/01/16 22:46:37;;;;;;;2.45;2.25;;;;;;;;;;7328795;19;154071;-14
2022/01/16 22:49:09;;;;;;;2.30;2.17;;;;;;;;;;7329203;19;153498;-15
2022/01/16 22:51:41;;;;;;;2.00;1.90;;;;;;;;;;7332637;19;161822;-14
2022/01/16 22:54:13;;;;;;;2.40;2.20;;;;;;;;;;7331293;19;162578;-15
2022/01/16 22:56:44;;;;;;;3.20;2.30;;;;;;;;;;7331484;19;154003;-14
2022/01/16 22:59:17;;;;;;;2.25;2.10;;;;;;;;;;7329984;19;153594;-15
2022/01/16 23:01:52;;;;;;;5.78;2.30;;;;;;;;;;7331518;19;161759;-14
2022/01/16 23:04:26;;;;;;;3.00;2.00;;;;;;;;;;7330887;19;162612;-14
2022/01/16 23:06:56;;;;;;;;;;;;;;;;;;7334391;19;154553;-15
2022/01/16 23:09:28;;;;;;;3.35;2.40;;;;;;;;;;7329639;19;153320;-15
2022/01/16 23:11:59;;;;;;;1.85;1.70;;;;;;;;;;7331373;19;161767;-14
2022/01/16 23:14:31;;;;;;;2.38;2.05;;;;;;;;;;7331536;19;162396;-15
2022/01/16 23:17:07;;;;;;;2.10;2.00;;;;;;;;;;7333405;19;153900;-14
2022/01/16 23:19:39;;;;;;;2.70;2.05;;;;;;;;;;7332127;19;153524;-16
2022/01/16 23:22:10;;;;;;;3.40;2.00;;;;;;;;;;7331012;19;161876;-14
2022/01/16 23:24:41;;;;;;;2.13;1.92;;;;;;;;;;7331005;19;162432;-15
2022/01/16 23:27:14;;;;;;;3.30;1.85;;;;;;;;;;7331134;19;153953;-14
2022/01/16 23:29:45;;;;;;;2.25;2.05;;;;;;;;;;7333214;19;153768;-14
2022/01/16 23:32:20;;;;;;;3.08;1.80;;;;;;;;;;7331827;19;161967;-14
2022/01/16 23:34:52;;;;;;;2.25;1.88;;;;;;;;;;7330745;19;162342;-14
2022/01/16 23:37:23;;;;;;;1.90;1.80;;;;;;;;;;7331448;19;154006;-16
2022/01/16 23:39:55;;;;;;;2.20;2.10;;;;;;;;;;7330594;19;153616;-14
2022/01/16 23:42:26;;;;;;;2.17;1.98;;;;;;;;;;7334680;19;162016;-14
2022/01/16 23:44:59;;;;;;;1.98;1.80;;;;;;;;;;7330538;19;162641;-15
2022/01/16 23:47:32;;;;;;;2.07;1.90;;;;;;;;;;7330927;19;154560;-13
2022/01/16 23:50:09;;;;;;;1.90;1.80;;;;;;;;;;7328071;19;153748;-15
2022/01/16 23:52:42;;;;;;;2.25;1.90;;;;;;;;;;7333737;19;161847;-15
2022/01/16 23:55:14;;;;;;;1.70;1.60;;;;;;;;;;7330845;19;162426;-14
2022/01/16 23:57:46;;;;;;;1.55;1.55;;;;;;;;;;7329228;19;153898;-13
